Time;durP1;ratioP1;P1;durP2;ratioP2;P2;SDS_P1;SDS_P2;PMS_P1;PMS_P2;Temp;Humidity;BMP_temperature;BMP_pressure;BME280_temperature;BME280_humidity;BME280_pressure;Samples;Min_cycle;Max_cycle;Signal;HPM_P1;HPM_P2
2023/08/23 00:00:41;;;;;;;;;;;;;;;17.72;44.06;100843.19;5081306;28;1291;-60
2023/08/23 00:03:06;;;;;;;;;;;;;;;17.69;43.93;100852.00;5090405;28;1949;-60
2023/08/23 00:05:32;;;;;;;;;;;;;;;17.70;44.19;100842.66;5088421;28;1075;-63
2023/08/23 00:07:57;;;;;;;;;;;;;;;17.74;44.06;100848.41;5088653;28;1097;-60
2023/08/23 00:10:23;;;;;;;;;;;;;;;17.70;44.01;100847.34;5095856;28;1067;-62
2023/08/23 00:12:53;;;;;;;;;;;;;;;17.64;43.89;100854.75;5095540;28;1917;-62
2023/08/23 00:15:18;;;;;;;;;;;;;;;17.75;43.82;100850.06;5095544;28;1034;-61
2023/08/23 00:17:44;;;;;;;;;;;;;;;17.77;43.80;100845.09;5095088;28;1002;-62
2023/08/23 00:20:09;;;;;;;;;;;;;;;17.64;44.17;100842.94;5089145;28;1105;-63
2023/08/23 00:22:35;;;;;;;;;;;;;;;17.64;44.09;100842.94;5088716;28;1471;-64
2023/08/23 00:25:00;;;;;;;;;;;;;;;17.64;43.84;100840.19;5095062;28;1087;-63
2023/08/23 00:27:26;;;;;;;;;;;;;;;17.67;44.00;100854.22;5096050;28;1022;-63
2023/08/23 00:29:51;;;;;;;;;;;;;;;17.70;43.93;100847.34;5092651;28;956;-62
2023/08/23 00:32:17;;;;;;;;;;;;;;;17.66;43.93;100851.75;5061028;28;1981;-62
2023/08/23 00:34:43;;;;;;;;;;;;;;;17.75;43.74;100853.66;5079629;28;1775;-62
2023/08/23 00:37:08;;;;;;;;;;;;;;;17.69;43.91;100851.19;5091878;28;1084;-62
2023/08/23 00:39:33;;;;;;;;;;;;;;;17.69;43.98;100851.19;5074863;28;1351;-61
2023/08/23 00:42:00;;;;;;;;;;;;;;;17.59;44.19;100850.09;5078487;28;1420;-63
2023/08/23 00:44:25;;;;;;;;;;;;;;;17.65;43.95;100850.91;5098440;28;1269;-63
2023/08/23 00:46:51;;;;;;;;;;;;;;;17.59;44.18;100854.78;5099406;28;1049;-63
2023/08/23 00:49:18;;;;;;;;;;;;;;;17.65;43.89;100855.59;5067263;28;1094;-63
2023/08/23 00:51:43;;;;;;;;;;;;;;;17.53;43.91;100847.63;5080120;28;1917;-62
2023/08/23 00:54:11;;;;;;;;;;;;;;;17.58;44.15;100848.44;5085206;28;975;-62
2023/08/23 00:56:37;;;;;;;;;;;;;;;17.58;44.00;100844.88;5085631;28;1014;-62
2023/08/23 00:59:02;;;;;;;;;;;;;;;17.59;43.87;100852.84;5063840;28;1083;-62
2023/08/23 01:01:28;;;;;;;;;;;;;;;17.63;43.96;100853.13;5085795;28;991;-62
2023/08/23 01:03:55;;;;;;;;;;;;;;;17.61;43.96;100850.66;5091647;28;2080;-61
2023/08/23 01:06:29;;;;;;;;;;;;;;;17.65;44.01;100850.09;5080040;28;1959;-61
2023/08/23 01:09:13;;;;;;;;;;;;;;;17.51;44.46;100852.59;5073150;28;1628;-61
2023/08/23 01:11:48;;;;;;;;;;;;;;;17.52;44.30;100844.06;5081865;28;1991;-62
2023/08/23 01:14:26;;;;;;;;;;;;;;;17.61;44.00;100844.31;5080358;28;1612;-62
2023/08/23 01:16:51;;;;;;;;;;;;;;;17.62;43.85;100857.78;5073823;28;1164;-61
2023/08/23 01:19:24;;;;;;;;;;;;;;;17.56;44.21;100858.09;5043591;28;1024;-62
2023/08/23 01:21:49;;;;;;;;;;;;;;;17.61;44.07;100856.16;5060741;28;1020;-62
2023/08/23 01:24:15;;;;;;;;;;;;;;;17.60;44.07;100848.19;5060517;28;984;-61
2023/08/23 01:26:40;;;;;;;;;;;;;;;17.60;44.13;100845.44;5097974;28;1061;-62
2023/08/23 01:29:07;;;;;;;;;;;;;;;17.51;44.37;100849.84;5097464;28;1165;-61
2023/08/23 01:31:34;;;;;;;;;;;;;;;17.57;44.16;100848.72;5084530;28;1921;-61
2023/08/23 01:34:00;;;;;;;;;;;;;;;17.64;43.81;100842.94;5096929;28;1922;-61
2023/08/23 01:36:28;;;;;;;;;;;;;;;17.54;44.02;100844.59;5051118;28;1262;-63
2023/08/23 01:38:54;;;;;;;;;;;;;;;17.56;43.95;100847.09;5078384;28;1110;-63
2023/08/23 01:41:19;;;;;;;;;;;;;;;17.54;44.09;100850.09;5084441;28;911;-62
2023/08/23 01:43:45;;;;;;;;;;;;;;;17.51;44.13;100844.34;5065535;28;1071;-62
2023/08/23 01:46:11;;;;;;;;;;;;;;;17.55;44.07;100850.94;5067111;28;1155;-63
2023/08/23 01:48:36;;;;;;;;;;;;;;;17.55;44.14;100850.94;5075837;28;990;-62
2023/08/23 01:51:03;;;;;;;;;;;;;;;17.56;44.11;100852.59;5078043;28;1050;-63
2023/08/23 01:53:28;;;;;;;;;;;;;;;17.55;44.13;100845.44;5077196;28;1965;-62
2023/08/23 01:55:54;;;;;;;;;;;;;;;17.58;44.01;100839.38;5059450;28;2385;-63
2023/08/23 01:58:19;;;;;;;;;;;;;;;17.60;43.83;100848.19;5059445;28;1039;-63
2023/08/23 02:00:45;;;;;;;;;;;;;;;17.62;43.99;100838.53;5079501;28;1079;-63
2023/08/23 02:03:11;;;;;;;;;;;;;;;17.53;43.87;100842.97;5065650;28;1888;-63
2023/08/23 02:05:36;;;;;;;;;;;;;;;17.52;44.05;100832.25;5059067;28;1122;-62
2023/08/23 02:08:02;;;;;;;;;;;;;;;17.56;43.89;100836.09;5090668;28;1099;-63
2023/08/23 02:10:27;;;;;;;;;;;;;;;17.54;44.17;100841.84;5084797;28;1122;-63
2023/08/23 02:12:54;;;;;;;;;;;;;;;17.62;43.79;100837.72;5064937;28;1901;-62
2023/08/23 02:15:19;;;;;;;;;;;;;;;17.47;44.26;100833.06;5059380;28;1052;-63
2023/08/23 02:17:45;;;;;;;;;;;;;;;17.64;43.76;100826.44;5090090;28;1058;-63
2023/08/23 02:20:11;;;;;;;;;;;;;;;17.51;44.00;100830.59;5097207;28;1066;-62
2023/08/23 02:22:36;;;;;;;;;;;;;;;17.48;44.12;100834.72;5075360;28;1022;-62
2023/08/23 02:25:02;;;;;;;;;;;;;;;17.55;43.81;100829.75;5077020;28;1280;-63
2023/08/23 02:27:27;;;;;;;;;;;;;;;17.50;43.96;100834.44;5076831;28;1077;-62
2023/08/23 02:29:53;;;;;;;;;;;;;;;17.49;43.96;100838.28;5090160;28;1146;-62
2023/08/23 02:32:18;;;;;;;;;;;;;;;17.38;44.25;100832.81;5072171;28;1960;-63
2023/08/23 02:34:44;;;;;;;;;;;;;;;17.54;43.81;100832.78;5084125;28;1819;-63
2023/08/23 02:37:09;;;;;;;;;;;;;;;17.55;43.93;100839.94;5083864;28;1091;-63
2023/08/23 02:39:35;;;;;;;;;;;;;;;17.43;44.16;100832.81;5096174;28;1031;-62
2023/08/23 02:42:00;;;;;;;;;;;;;;;17.54;43.88;100835.53;5096719;28;1154;-63
2023/08/23 02:44:26;;;;;;;;;;;;;;;17.49;44.14;100835.53;5076964;28;1046;-63
2023/08/23 02:46:51;;;;;;;;;;;;;;;17.53;43.96;100839.38;5076573;28;1098;-63
2023/08/23 02:49:17;;;;;;;;;;;;;;;17.48;44.11;100840.22;5096624;28;1261;-63
2023/08/23 02:51:42;;;;;;;;;;;;;;;17.44;44.01;100834.44;5096552;28;1901;-63
2023/08/23 02:54:09;;;;;;;;;;;;;;;17.43;44.21;100835.56;5095980;28;920;-63
2023/08/23 02:56:35;;;;;;;;;;;;;;;17.45;43.80;100846.28;5075059;28;1580;-63
2023/08/23 02:59:00;;;;;;;;;;;;;;;17.57;43.79;100837.72;5089574;28;1099;-63
2023/08/23 03:01:26;;;;;;;;;;;;;;;17.54;43.80;100841.03;5076456;28;956;-63
2023/08/23 03:03:51;;;;;;;;;;;;;;;17.49;43.66;100836.38;5064493;28;1877;-62
2023/08/23 03:06:17;;;;;;;;;;;;;;;17.48;43.70;100844.91;5083359;28;886;-63
2023/08/23 03:08:42;;;;;;;;;;;;;;;17.49;43.83;100844.63;5064316;28;1181;-62
2023/08/23 03:11:08;;;;;;;;;;;;;;;17.42;43.82;100853.16;5065892;28;1134;-63
2023/08/23 03:13:33;;;;;;;;;;;;;;;17.40;43.98;100849.88;5076285;28;1927;-63
2023/08/23 03:15:59;;;;;;;;;;;;;;;17.44;43.88;100848.19;5088227;28;1059;-61
2023/08/23 03:18:25;;;;;;;;;;;;;;;17.43;43.84;100854.81;5070918;28;1086;-63
2023/08/23 03:20:51;;;;;;;;;;;;;;;17.42;43.79;100853.16;5088694;28;1154;-64
2023/08/23 03:23:17;;;;;;;;;;;;;;;17.45;43.91;100847.09;5064827;28;1114;-64
2023/08/23 03:25:45;;;;;;;;;;;;;;;17.48;43.66;100845.72;5078143;28;1134;-64
2023/08/23 03:28:10;;;;;;;;;;;;;;;17.40;43.92;100838.88;5064351;28;1204;-63
2023/08/23 03:30:36;;;;;;;;;;;;;;;17.49;43.62;100850.13;5087036;28;1039;-62
2023/08/23 03:33:02;;;;;;;;;;;;;;;17.40;43.98;100843.53;5066008;28;1911;-62
2023/08/23 03:35:29;;;;;;;;;;;;;;;17.47;43.65;100848.75;5062015;28;1867;-64
2023/08/23 03:37:55;;;;;;;;;;;;;;;17.43;43.88;100848.47;5095528;28;1043;-63
2023/08/23 03:40:20;;;;;;;;;;;;;;;17.41;43.96;100850.69;5073534;28;1173;-64
2023/08/23 03:42:46;;;;;;;;;;;;;;;17.40;43.84;100849.88;5075882;28;859;-63
2023/08/23 03:45:11;;;;;;;;;;;;;;;17.37;43.77;100844.09;5080059;28;1114;-64
2023/08/23 03:47:37;;;;;;;;;;;;;;;17.40;44.03;100843.53;5078236;28;1070;-64
2023/08/23 03:50:03;;;;;;;;;;;;;;;17.48;43.85;100844.91;5077287;28;1302;-65
2023/08/23 03:52:29;;;;;;;;;;;;;;;17.38;44.00;100846.56;5070256;28;1910;-62
2023/08/23 03:54:55;;;;;;;;;;;;;;;17.37;43.94;100842.16;5089634;28;858;-57
2023/08/23 03:57:20;;;;;;;;;;;;;;;17.33;43.99;100843.00;5096037;28;1026;-60
2023/08/23 03:59:46;;;;;;;;;;;;;;;17.40;43.83;100847.13;5077595;28;1686;-61
2023/08/23 04:02:11;;;;;;;;;;;;;;;17.39;44.20;100848.22;5095772;28;1035;-61
2023/08/23 04:04:37;;;;;;;;;;;;;;;17.35;43.99;100852.63;5099208;28;2287;-61
2023/08/23 04:07:02;;;;;;;;;;;;;;;17.38;43.80;100846.56;5073556;28;1386;-59
2023/08/23 04:09:28;;;;;;;;;;;;;;;17.39;43.98;100856.47;5099370;28;1081;-51
2023/08/23 04:11:53;;;;;;;;;;;;;;;17.36;43.99;100853.44;5098446;28;1980;-58
2023/08/23 04:14:19;;;;;;;;;;;;;;;17.36;44.11;100856.19;5099552;28;1304;-59
2023/08/23 04:16:44;;;;;;;;;;;;;;;17.44;43.96;100852.88;5080739;28;1567;-58
2023/08/23 04:19:10;;;;;;;;;;;;;;;17.39;44.32;100856.47;5098879;28;1237;-58
2023/08/23 04:21:35;;;;;;;;;;;;;;;17.45;44.03;100858.09;5099046;28;1217;-59
2023/08/23 04:24:01;;;;;;;;;;;;;;;17.46;43.95;100864.44;5099574;28;1178;-59
2023/08/23 04:26:27;;;;;;;;;;;;;;;17.47;44.01;100859.75;5080892;28;1241;-59
2023/08/23 04:28:52;;;;;;;;;;;;;;;17.39;43.99;100863.88;5098917;28;1344;-58
2023/08/23 04:31:18;;;;;;;;;;;;;;;17.42;44.07;100858.66;5079783;28;1307;-58
2023/08/23 04:33:50;;;;;;;;;;;;;;;17.47;43.85;100868.00;5077786;28;1975;-58
2023/08/23 04:36:16;;;;;;;;;;;;;;;17.41;43.97;100861.69;5080772;28;1312;-59
2023/08/23 04:38:42;;;;;;;;;;;;;;;17.47;43.92;100866.06;5098651;28;1218;-59
2023/08/23 04:41:07;;;;;;;;;;;;;;;17.35;44.33;100863.63;5080207;28;1241;-58
2023/08/23 04:43:33;;;;;;;;;;;;;;;17.49;44.01;100874.88;5077409;28;1308;-58
2023/08/23 04:46:04;;;;;;;;;;;;;;;18.72;42.88;100873.56;5080546;28;1248;-58
2023/08/23 04:48:30;;;;;;;;;;;;;;;18.41;44.07;100873.75;5080442;28;1221;-59
2023/08/23 04:50:57;;;;;;;;;;;;;;;18.26;44.59;100876.59;5098428;28;1139;-60
2023/08/23 04:53:23;;;;;;;;;;;;;;;18.15;45.13;100875.81;5080260;28;1909;-59
2023/08/23 04:55:48;;;;;;;;;;;;;;;18.09;45.50;100875.00;5077597;28;1138;-59
2023/08/23 04:58:14;;;;;;;;;;;;;;;18.03;45.88;100887.13;5098640;28;1272;-58
2023/08/23 05:00:39;;;;;;;;;;;;;;;17.95;46.41;100882.22;5098235;28;1119;-59
2023/08/23 05:03:05;;;;;;;;;;;;;;;17.92;46.61;100885.50;5079517;28;1869;-59
2023/08/23 05:05:31;;;;;;;;;;;;;;;17.95;46.83;100888.53;5080130;28;1254;-59
2023/08/23 05:07:56;;;;;;;;;;;;;;;17.87;47.14;100877.25;5097853;28;1289;-58
2023/08/23 05:10:23;;;;;;;;;;;;;;;17.81;47.53;100881.97;5080123;28;1280;-58
2023/08/23 05:12:48;;;;;;;;;;;;;;;17.77;47.48;100870.69;5097717;28;1906;-59
2023/08/23 05:15:14;;;;;;;;;;;;;;;17.86;47.64;100892.09;5079032;28;1234;-59
2023/08/23 05:17:39;;;;;;;;;;;;;;;17.79;48.06;100879.50;5097954;28;1242;-59
2023/08/23 05:20:08;;;;;;;;;;;;;;;17.81;47.93;100881.13;5079684;28;1320;-59
2023/08/23 05:22:34;;;;;;;;;;;;;;;17.72;48.50;100884.44;5079747;28;1317;-59
2023/08/23 05:25:00;;;;;;;;;;;;;;;17.72;48.73;100878.94;5080263;28;1499;-59
2023/08/23 05:27:25;;;;;;;;;;;;;;;17.78;48.36;100886.09;5097932;28;1113;-59
2023/08/23 05:29:52;;;;;;;;;;;;;;;17.68;48.87;100877.84;5079321;28;1157;-58
2023/08/23 05:32:17;;;;;;;;;;;;;;;17.66;49.05;100880.06;5079500;28;1897;-58
2023/08/23 05:34:43;;;;;;;;;;;;;;;17.62;49.16;100877.03;5078396;28;2530;-58
2023/08/23 05:37:08;;;;;;;;;;;;;;;17.65;49.34;100878.41;5097477;28;1085;-61
2023/08/23 05:39:34;;;;;;;;;;;;;;;17.63;49.35;100872.38;5079472;28;1296;-59
2023/08/23 05:41:59;;;;;;;;;;;;;;;17.66;49.46;100869.06;5079470;28;1098;-60
2023/08/23 05:44:25;;;;;;;;;;;;;;;17.66;49.63;100877.31;5079481;28;1254;-59
2023/08/23 05:46:50;;;;;;;;;;;;;;;17.63;49.86;100869.63;5097883;28;1102;-58
2023/08/23 05:49:16;;;;;;;;;;;;;;;17.58;49.95;100873.19;5079856;28;1170;-57
2023/08/23 05:51:42;;;;;;;;;;;;;;;17.58;49.99;100878.69;5084137;28;1911;-58
2023/08/23 05:54:07;;;;;;;;;;;;;;;17.57;50.24;100878.97;5097728;28;1117;-57
2023/08/23 05:56:33;;;;;;;;;;;;;;;17.60;50.29;100875.69;5097802;28;1051;-59
2023/08/23 05:58:58;;;;;;;;;;;;;;;17.61;50.32;100871.81;5097580;28;1117;-60
2023/08/23 06:01:24;;;;;;;;;;;;;;;17.59;50.52;100871.28;5097458;28;1074;-60
2023/08/23 06:03:49;;;;;;;;;;;;;;;17.57;50.70;100870.72;5086232;28;2448;-58
2023/08/23 06:06:15;;;;;;;;;;;;;;;17.60;50.42;100870.19;5083589;28;993;-58
2023/08/23 06:08:40;;;;;;;;;;;;;;;17.60;50.71;100868.25;5097497;28;1089;-58
2023/08/23 06:11:06;;;;;;;;;;;;;;;17.64;50.60;100870.44;5096480;28;1218;-59
2023/08/23 06:13:31;;;;;;;;;;;;;;;17.50;51.23;100862.78;5096905;28;1996;-59
2023/08/23 06:15:57;;;;;;;;;;;;;;;17.61;50.76;100869.06;5096695;28;1276;-59
2023/08/23 06:18:23;;;;;;;;;;;;;;;17.60;50.89;100865.50;5095758;28;1233;-59
2023/08/23 06:20:49;;;;;;;;;;;;;;;17.62;51.00;100867.97;5096701;28;1198;-60
2023/08/23 06:23:15;;;;;;;;;;;;;;;17.63;51.16;100869.63;5096819;28;1229;-59
2023/08/23 06:25:40;;;;;;;;;;;;;;;17.61;51.09;100861.66;5096171;28;1249;-59
2023/08/23 06:28:06;;;;;;;;;;;;;;;17.61;51.40;100867.16;5096248;28;1206;-59
2023/08/23 06:30:31;;;;;;;;;;;;;;;17.64;51.07;100871.25;5095643;28;1261;-59
2023/08/23 06:32:57;;;;;;;;;;;;;;;17.61;51.30;100871.81;5092488;28;2591;-59
2023/08/23 06:35:23;;;;;;;;;;;;;;;17.64;51.42;100870.44;5095850;28;1075;-59
2023/08/23 06:37:49;;;;;;;;;;;;;;;17.63;51.57;100869.63;5096858;28;1081;-60
2023/08/23 06:40:16;;;;;;;;;;;;;;;17.62;51.57;100878.97;5096789;28;1146;-59
2023/08/23 06:42:41;;;;;;;;;;;;;;;17.65;51.45;100877.59;5093902;28;1058;-60
2023/08/23 06:45:08;;;;;;;;;;;;;;;17.61;51.66;100882.81;5095721;28;1217;-59
2023/08/23 06:47:33;;;;;;;;;;;;;;;17.57;51.73;100876.22;5095663;28;1253;-60
2023/08/23 06:49:59;;;;;;;;;;;;;;;17.60;51.81;100878.44;5096309;28;1229;-60
2023/08/23 06:52:24;;;;;;;;;;;;;;;17.58;51.76;100877.88;5094686;28;1918;-60
2023/08/23 06:54:50;;;;;;;;;;;;;;;17.62;51.75;100878.97;5095708;28;1265;-61
2023/08/23 06:57:15;;;;;;;;;;;;;;;17.60;51.82;100878.44;5096218;28;1482;-61
2023/08/23 06:59:41;;;;;;;;;;;;;;;17.69;51.94;100885.00;5095890;28;1280;-60
2023/08/23 07:02:06;;;;;;;;;;;;;;;17.64;52.10;100878.69;5096209;28;1190;-61
2023/08/23 07:04:32;;;;;;;;;;;;;;;17.63;51.88;100875.13;5095777;28;1958;-59
2023/08/23 07:06:57;;;;;;;;;;;;;;;17.65;52.07;100878.41;5095796;28;1273;-60
2023/08/23 07:09:23;;;;;;;;;;;;;;;17.62;52.32;100878.97;5096614;28;1126;-58
2023/08/23 07:11:48;;;;;;;;;;;;;;;17.65;52.42;100880.34;5096044;28;1906;-59
2023/08/23 07:14:14;;;;;;;;;;;;;;;17.70;52.16;100886.66;5096363;28;1098;-60
2023/08/23 07:16:39;;;;;;;;;;;;;;;17.67;52.25;100884.47;5096095;28;1070;-60
2023/08/23 07:19:05;;;;;;;;;;;;;;;17.68;52.12;100888.03;5096035;28;1190;-58
2023/08/23 07:21:30;;;;;;;;;;;;;;;17.67;52.40;100878.13;5096609;28;1041;-57
2023/08/23 07:23:56;;;;;;;;;;;;;;;17.71;52.32;100885.56;5096068;28;1025;-56
2023/08/23 07:26:21;;;;;;;;;;;;;;;17.71;52.46;100885.56;5096152;28;1024;-59
2023/08/23 07:28:47;;;;;;;;;;;;;;;17.74;52.15;100881.41;5077868;28;1122;-60
2023/08/23 07:31:12;;;;;;;;;;;;;;;17.70;52.56;100883.09;5092067;28;1058;-60
2023/08/23 07:33:38;;;;;;;;;;;;;;;17.73;52.43;100886.09;5076223;28;2281;-59
2023/08/23 07:36:04;;;;;;;;;;;;;;;17.73;52.51;100883.34;5092822;28;1181;-60
2023/08/23 07:38:32;;;;;;;;;;;;;;;17.77;52.51;100878.13;5098641;28;1039;-59
2023/08/23 07:41:01;;;;;;;;;;;;;;;17.74;52.41;100878.66;5099778;28;1014;-60
2023/08/23 07:43:26;;;;;;;;;;;;;;;17.74;52.50;100876.75;5100032;28;1127;-60
2023/08/23 07:45:58;;;;;;;;;;;;;;;17.76;52.60;100869.03;5100015;28;1165;-60
2023/08/23 07:48:24;;;;;;;;;;;;;;;17.76;52.61;100869.03;5099607;28;1156;-60
2023/08/23 07:50:50;;;;;;;;;;;;;;;17.75;52.76;100867.41;5100054;28;1101;-60
2023/08/23 07:53:16;;;;;;;;;;;;;;;17.76;52.75;100863.53;5099584;28;1982;-59
2023/08/23 07:55:41;;;;;;;;;;;;;;;17.74;52.82;100868.50;5086283;28;1149;-56
2023/08/23 07:58:07;;;;;;;;;;;;;;;17.77;52.67;100867.13;5100050;28;1053;-59
2023/08/23 08:00:32;;;;;;;;;;;;;;;17.78;52.63;100872.34;5099424;28;1235;-59
2023/08/23 08:02:58;;;;;;;;;;;;;;;17.76;52.60;100863.53;5095753;28;2393;-56
2023/08/23 08:05:23;;;;;;;;;;;;;;;17.77;52.87;100875.38;5098679;28;1146;-59
2023/08/23 08:07:49;;;;;;;;;;;;;;;17.79;52.80;100874.00;5099253;28;1045;-60
2023/08/23 08:10:15;;;;;;;;;;;;;;;17.81;52.72;100867.34;5099007;28;983;-55
2023/08/23 08:12:40;;;;;;;;;;;;;;;17.78;52.83;100866.81;5098897;28;1909;-55
2023/08/23 08:15:07;;;;;;;;;;;;;;;17.84;52.97;100864.88;5099412;28;1186;-57
2023/08/23 08:17:33;;;;;;;;;;;;;;;17.79;52.87;100865.72;5099059;28;1364;-53
2023/08/23 08:20:00;;;;;;;;;;;;;;;17.84;52.97;100861.28;5098974;28;1210;-60
2023/08/23 08:22:25;;;;;;;;;;;;;;;17.82;53.07;100861.56;5098754;28;1014;-59
2023/08/23 08:24:51;;;;;;;;;;;;;;;17.87;53.07;100869.00;5099174;28;1233;-60
2023/08/23 08:27:16;;;;;;;;;;;;;;;17.83;53.15;100870.66;5098891;28;1133;-59
2023/08/23 08:29:42;;;;;;;;;;;;;;;17.88;52.89;100865.13;5099189;28;1154;-60
2023/08/23 08:32:07;;;;;;;;;;;;;;;17.85;53.30;100862.94;5098885;28;1984;-58
2023/08/23 08:34:33;;;;;;;;;;;;;;;17.86;52.98;100867.34;5086295;28;1816;-58
2023/08/23 08:36:59;;;;;;;;;;;;;;;17.88;53.10;100870.63;5098875;28;1174;-58
2023/08/23 08:39:24;;;;;;;;;;;;;;;17.88;53.21;100865.13;5098720;28;1117;-58
2023/08/23 08:41:51;;;;;;;;;;;;;;;17.85;53.52;100865.69;5098368;28;1002;-59
2023/08/23 08:44:16;;;;;;;;;;;;;;;17.84;53.34;100862.13;5098720;28;1189;-58
2023/08/23 08:46:42;;;;;;;;;;;;;;;17.89;53.04;100864.03;5099208;28;1060;-59
2023/08/23 08:49:07;;;;;;;;;;;;;;;17.87;53.14;100852.50;5098490;28;1066;-58
2023/08/23 08:51:35;;;;;;;;;;;;;;;17.92;53.44;100855.25;5098565;28;1213;-58
2023/08/23 08:54:00;;;;;;;;;;;;;;;17.95;53.12;100854.72;5098200;28;1905;-57
2023/08/23 08:56:26;;;;;;;;;;;;;;;17.94;53.42;100851.13;5080799;28;1212;-59
2023/08/23 08:58:51;;;;;;;;;;;;;;;17.94;53.44;100844.81;5098670;28;1169;-59
2023/08/23 09:01:17;;;;;;;;;;;;;;;17.97;53.44;100846.16;5080060;28;1094;-59
2023/08/23 09:03:42;;;;;;;;;;;;;;;17.98;53.45;100840.38;5087881;28;2405;-60
2023/08/23 09:06:08;;;;;;;;;;;;;;;17.98;53.55;100845.03;5079596;28;1044;-58
2023/08/23 09:08:34;;;;;;;;;;;;;;;17.94;53.63;100844.81;5098506;28;1090;-59
2023/08/23 09:10:59;;;;;;;;;;;;;;;18.00;53.68;100835.41;5097931;28;1145;-58
2023/08/23 09:13:25;;;;;;;;;;;;;;;17.99;53.78;100841.19;5098390;28;1906;-58
2023/08/23 09:15:50;;;;;;;;;;;;;;;17.97;53.75;100838.72;5097913;28;1094;-57
2023/08/23 09:18:19;;;;;;;;;;;;;;;18.04;53.39;100835.69;5098179;28;1131;-57
2023/08/23 09:20:44;;;;;;;;;;;;;;;18.02;53.62;100827.72;5096900;28;1062;-59
2023/08/23 09:23:10;;;;;;;;;;;;;;;18.04;53.54;100825.50;5098312;28;1110;-59
2023/08/23 09:25:35;;;;;;;;;;;;;;;18.08;53.50;100821.06;5098294;28;1282;-59
2023/08/23 09:28:01;;;;;;;;;;;;;;;18.05;53.84;100823.56;5098015;28;1031;-59
2023/08/23 09:30:26;;;;;;;;;;;;;;;18.02;54.05;100816.72;5097931;28;1108;-59
2023/08/23 09:32:52;;;;;;;;;;;;;;;18.12;53.52;100811.13;5076071;28;2345;-58
2023/08/23 09:35:18;;;;;;;;;;;;;;;18.04;53.94;100808.97;5089176;28;1154;-59
2023/08/23 09:37:44;;;;;;;;;;;;;;;18.05;53.85;100813.38;5097813;28;987;-59
2023/08/23 09:40:19;;;;;;;;;;;;;;;18.11;53.68;100806.75;5096790;28;1022;-59
2023/08/23 09:42:44;;;;;;;;;;;;;;;18.11;53.84;100809.50;5097617;28;1147;-60
2023/08/23 09:45:11;;;;;;;;;;;;;;;18.07;53.97;100808.41;5097543;28;1245;-59
2023/08/23 09:47:37;;;;;;;;;;;;;;;18.12;53.67;100802.88;5079480;28;1320;-59
2023/08/23 09:50:03;;;;;;;;;;;;;;;18.11;53.72;100797.66;5079382;28;1138;-59
2023/08/23 09:52:30;;;;;;;;;;;;;;;18.08;53.91;100793.56;5096698;28;1914;-59
2023/08/23 09:55:09;;;;;;;;;;;;;;;18.11;53.67;100801.22;5079735;28;1214;-57
2023/08/23 09:57:34;;;;;;;;;;;;;;;18.11;53.91;100803.97;5097003;28;1174;-59
2023/08/23 10:00:00;;;;;;;;;;;;;;;18.18;53.63;100802.88;5097069;28;1070;-59
2023/08/23 10:02:26;;;;;;;;;;;;;;;18.19;53.73;100793.47;5079263;28;1114;-59
2023/08/23 10:04:51;;;;;;;;;;;;;;;18.16;53.90;100799.56;5089693;28;2609;-59
2023/08/23 10:07:17;;;;;;;;;;;;;;;18.21;53.80;100796.78;5097634;28;1082;-59
2023/08/23 10:09:44;;;;;;;;;;;;;;;18.18;53.93;100791.88;5097150;28;913;-59
2023/08/23 10:12:09;;;;;;;;;;;;;;;18.18;53.90;100786.34;5096882;28;1975;-59
2023/08/23 10:14:36;;;;;;;;;;;;;;;18.23;54.08;100789.91;5079083;28;1110;-61
2023/08/23 10:17:02;;;;;;;;;;;;;;;18.19;54.14;100793.47;5097229;28;1186;-60
2023/08/23 10:19:28;;;;;;;;;;;;;;;18.21;54.10;100792.09;5079623;28;1090;-59
2023/08/23 10:21:53;;;;;;;;;;;;;;;18.25;54.19;100781.34;5096227;28;1011;-60
2023/08/23 10:24:23;;;;;;;;;;;;;;;18.21;54.28;100792.09;5096920;28;1421;-61
2023/08/23 10:26:51;;;;;;;;;;;;;;;18.24;54.10;100780.53;5096981;28;1030;-59
2023/08/23 10:29:22;;;;;;;;;;;;;;;18.24;54.29;100782.44;5097457;28;1129;-60
2023/08/23 10:31:51;;;;;;;;;;;;;;;18.25;54.16;100775.84;5097017;28;1138;-59
2023/08/23 10:34:22;;;;;;;;;;;;;;;18.23;54.23;100778.03;5083680;28;2384;-59
2023/08/23 10:36:47;;;;;;;;;;;;;;;18.26;54.22;100772.81;5078953;28;1062;-60
2023/08/23 10:39:13;;;;;;;;;;;;;;;18.28;54.30;100778.84;5096793;28;1049;-58
2023/08/23 10:41:39;;;;;;;;;;;;;;;18.24;54.28;100775.03;5096367;28;1073;-60
2023/08/23 10:44:13;;;;;;;;;;;;;;;18.28;54.04;100770.59;5096682;28;1169;-59
2023/08/23 10:46:42;;;;;;;;;;;;;;;18.27;54.20;100776.38;5095402;28;953;-60
2023/08/23 10:49:08;;;;;;;;;;;;;;;18.27;54.33;100773.63;5096037;28;1285;-60
2023/08/23 10:51:33;;;;;;;;;;;;;;;18.26;54.41;100767.31;5096051;28;1205;-60
2023/08/23 10:53:59;;;;;;;;;;;;;;;18.28;54.16;100762.31;5078268;28;1918;-59
2023/08/23 10:56:25;;;;;;;;;;;;;;;18.25;54.24;100760.16;5096030;28;1269;-58
2023/08/23 10:58:51;;;;;;;;;;;;;;;18.27;54.33;100757.94;5093187;28;1099;-59
2023/08/23 11:01:16;;;;;;;;;;;;;;;18.26;54.44;100755.47;5078461;28;1281;-57
2023/08/23 11:03:42;;;;;;;;;;;;;;;18.27;54.34;100754.34;5075819;28;1830;-58
2023/08/23 11:06:07;;;;;;;;;;;;;;;18.28;54.21;100753.25;5078188;28;1289;-58
2023/08/23 11:08:33;;;;;;;;;;;;;;;18.25;54.37;100738.13;5077394;28;1226;-58
2023/08/23 11:10:58;;;;;;;;;;;;;;;18.27;54.26;100748.84;5096138;28;1269;-58
2023/08/23 11:13:24;;;;;;;;;;;;;;;18.29;54.20;100749.41;5094723;28;1980;-59
2023/08/23 11:15:50;;;;;;;;;;;;;;;18.30;54.37;100757.38;5095888;28;1289;-58
2023/08/23 11:18:15;;;;;;;;;;;;;;;18.27;54.52;100746.09;5096137;28;1273;-58
2023/08/23 11:20:41;;;;;;;;;;;;;;;18.25;54.59;100753.84;5095661;28;1233;-58
2023/08/23 11:23:07;;;;;;;;;;;;;;;18.23;54.34;100751.38;5095793;28;1236;-58
2023/08/23 11:25:32;;;;;;;;;;;;;;;18.27;54.33;100749.69;5095962;28;1230;-58
2023/08/23 11:27:58;;;;;;;;;;;;;;;18.26;54.34;100738.97;5095324;28;1253;-58
2023/08/23 11:30:23;;;;;;;;;;;;;;;18.26;54.48;100745.28;5096046;28;1217;-58
2023/08/23 11:32:49;;;;;;;;;;;;;;;18.26;54.32;100738.97;5076651;28;2266;-57
2023/08/23 11:35:17;;;;;;;;;;;;;;;18.27;54.50;100733.19;5095296;28;1129;-58
2023/08/23 11:37:43;;;;;;;;;;;;;;;18.21;54.44;100737.06;5095555;28;1154;-58
2023/08/23 11:40:10;;;;;;;;;;;;;;;18.24;54.71;100732.91;5095761;28;1146;-58
2023/08/23 11:42:36;;;;;;;;;;;;;;;18.29;54.38;100719.94;5095286;28;1285;-59
2023/08/23 11:45:03;;;;;;;;;;;;;;;18.23;54.38;100718.34;5095416;28;1154;-58
2023/08/23 11:47:29;;;;;;;;;;;;;;;18.31;54.35;100725.16;5077644;28;1285;-58
2023/08/23 11:49:55;;;;;;;;;;;;;;;18.33;54.36;100716.59;5077184;28;1596;-58
2023/08/23 11:52:20;;;;;;;;;;;;;;;18.25;54.40;100710.59;5095027;28;1898;-59
2023/08/23 11:54:46;;;;;;;;;;;;;;;18.33;54.30;100717.44;5095585;28;1182;-59
2023/08/23 11:57:15;;;;;;;;;;;;;;;18.32;54.53;100721.28;5094934;28;1174;-59
2023/08/23 11:59:41;;;;;;;;;;;;;;;18.25;54.74;100716.09;5095483;28;1292;-58
2023/08/23 12:02:07;;;;;;;;;;;;;;;18.28;54.63;100711.97;5095542;28;1140;-58
2023/08/23 12:04:32;;;;;;;;;;;;;;;18.27;54.59;100715.81;5093845;28;2487;-59
2023/08/23 12:06:58;;;;;;;;;;;;;;;18.31;54.39;100714.13;5077225;28;1162;-59
2023/08/23 12:09:25;;;;;;;;;;;;;;;18.29;54.34;100716.38;5095053;28;1022;-59
2023/08/23 12:11:54;;;;;;;;;;;;;;;18.24;54.54;100710.91;5095709;28;1210;-59
2023/08/23 12:14:19;;;;;;;;;;;;;;;18.25;54.65;100710.59;5095432;28;1914;-59
2023/08/23 12:16:45;;;;;;;;;;;;;;;18.26;54.79;100711.44;5095340;28;1249;-59
2023/08/23 12:19:10;;;;;;;;;;;;;;;18.26;54.53;100708.69;5095294;28;1147;-59
2023/08/23 12:21:36;;;;;;;;;;;;;;;18.25;54.44;100713.34;5095112;28;1186;-60
2023/08/23 12:24:01;;;;;;;;;;;;;;;18.26;54.69;100716.94;5097481;28;1123;-58
2023/08/23 12:26:27;;;;;;;;;;;;;;;18.26;54.41;100711.44;5097514;28;1153;-58
2023/08/23 12:28:52;;;;;;;;;;;;;;;18.24;54.83;100706.22;5090425;28;1102;-59
2023/08/23 12:31:18;;;;;;;;;;;;;;;18.27;54.53;100704.81;5098391;28;1192;-58
2023/08/23 12:33:43;;;;;;;;;;;;;;;18.27;54.59;100702.06;5098312;28;1976;-59
2023/08/23 12:36:09;;;;;;;;;;;;;;;18.26;54.72;100705.94;5099265;28;1225;-59
2023/08/23 12:38:35;;;;;;;;;;;;;;;18.25;54.79;100704.28;5098490;28;1206;-59
2023/08/23 12:41:00;;;;;;;;;;;;;;;18.24;54.40;100705.38;5098888;28;1301;-58